Terminal Aerodrome Forecast
Issued by NWS Wilmington, OH

Current Version | Previous Version | Text Only | Print | Product List | Glossary Off
Versions: 1 2 3 4 5 6 7 8 9 10 11 12 13 14 15 16 17 18 19 20 21 22 23 24

513
FTUS41 KILN 182009 AAA
TAFDAY
TAF AMD
KDAY 182009Z 1820/1918 28008KT P6SM OVC008
      TEMPO 1820/1822 3SM -DZ
     FM190100 23005KT P6SM BKN010
     FM191200 VRB03KT 5SM BR SCT012 BKN250
     FM191600 16005KT P6SM BKN250=

USA.gov is the U.S. government's official web portal to all federal, state and local government web resources and services.